Time;durP1;ratioP1;P1;durP2;ratioP2;P2;SDS_P1;SDS_P2;PMS_P1;PMS_P2;Temp;Humidity;BMP_temperature;BMP_pressure;BME280_temperature;BME280_humidity;BME280_pressure;Samples;Min_cycle;Max_cycle;Signal;HPM_P1;HPM_P2
2023/04/24 00:01:25;;;;;;;0.90;0.90;;;;;;;24.43;37.10;98709.86;1901139;75;28194;-50
2023/04/24 00:04:16;;;;;;;1.70;1.10;;;;;;;24.43;37.14;98716.72;1891657;75;28116;-49
2023/04/24 00:07:03;;;;;;;1.02;1.02;;;;;;;24.42;37.13;98710.94;1892010;75;28579;-48
2023/04/24 00:09:51;;;;;;;1.27;1.17;;;;;;;24.43;37.14;98715.35;1896411;75;28606;-48
2023/04/24 00:12:39;;;;;;;1.22;1.12;;;;;;;24.42;37.10;98715.05;1868659;76;28149;-50
2023/04/24 00:15:28;;;;;;;1.12;1.05;;;;;;;24.43;37.10;98713.14;1889201;75;28094;-53
2023/04/24 00:18:16;;;;;;;1.45;1.05;;;;;;;24.42;37.10;98720.55;1879281;75;28106;-49
2023/04/24 00:21:05;;;;;;;1.22;1.12;;;;;;;24.41;37.11;98723.00;1895744;75;28150;-46
2023/04/24 00:23:54;;;;;;;1.05;1.05;;;;;;;24.39;37.18;98721.60;1897482;75;32090;-48
2023/04/24 00:26:42;;;;;;;0.90;0.90;;;;;;;24.42;37.11;98733.44;1894395;75;28387;-49
2023/04/24 00:29:31;;;;;;;1.22;0.90;;;;;;;24.44;37.04;98734.83;1864425;76;28206;-47
2023/04/24 00:32:20;;;;;;;1.27;1.17;;;;;;;24.44;37.08;98731.25;1878965;75;28566;-48
2023/04/24 00:35:10;;;;;;;1.15;1.00;;;;;;;24.41;37.12;98727.11;1869612;75;28129;-48
2023/04/24 00:37:58;;;;;;;0.90;0.90;;;;;;;24.41;37.11;98735.35;1893095;75;28134;-46
2023/04/24 00:40:47;;;;;;;1.37;1.27;;;;;;;24.39;37.14;98734.79;1889305;74;28033;-49
2023/04/24 00:43:36;;;;;;;1.02;0.80;;;;;;;24.39;37.11;98732.05;1887401;75;28233;-49
2023/04/24 00:46:24;;;;;;;1.10;1.00;;;;;;;24.39;37.10;98725.72;1890413;75;28189;-51
2023/04/24 00:49:14;;;;;;;1.07;0.90;;;;;;;24.36;37.13;98732.59;1884651;75;28097;-50
2023/04/24 00:52:07;;;;;;;0.90;0.90;;;;;;;24.36;37.10;98732.59;1901405;75;32098;-50
2023/04/24 00:54:52;;;;;;;0.82;0.82;;;;;;;24.38;37.09;98733.16;1881078;75;28162;-47
2023/04/24 00:57:41;;;;;;;0.85;0.85;;;;;;;24.39;37.07;98737.53;1890408;75;28195;-49
2023/04/24 01:00:31;;;;;;;1.10;1.00;;;;;;;24.39;37.03;98727.93;1868852;76;28240;-48
2023/04/24 01:03:23;;;;;;;0.85;0.85;;;;;;;24.39;37.01;98732.59;1886854;75;28093;-47
2023/04/24 01:06:12;;;;;;;1.07;0.90;;;;;;;24.36;37.06;98740.84;1868656;76;28263;-47
2023/04/24 01:09:01;;;;;;;0.80;0.80;;;;;;;24.39;37.06;98738.08;1868681;76;28152;-49
2023/04/24 01:11:51;;;;;;;1.00;1.00;;;;;;;24.37;37.03;98734.77;1874510;75;28162;-53
2023/04/24 01:14:40;;;;;;;0.97;0.93;;;;;;;24.35;37.02;98732.30;1894745;75;28232;-48
2023/04/24 01:17:29;;;;;;;1.37;0.75;;;;;;;24.35;37.04;98730.93;1881416;75;30057;-50
2023/04/24 01:20:19;;;;;;;1.80;0.90;;;;;;;24.35;37.06;98729.56;1899076;75;28085;-50
2023/04/24 01:23:10;;;;;;;0.93;0.93;;;;;;;24.37;37.01;98732.03;1889677;75;28600;-47
2023/04/24 01:25:59;;;;;;;1.10;0.90;;;;;;;24.36;36.99;98730.39;1885024;75;28080;-47
2023/04/24 01:28:49;;;;;;;1.25;0.90;;;;;;;24.36;36.98;98738.09;1868931;76;28137;-47
2023/04/24 01:31:38;;;;;;;0.70;0.70;;;;;;;24.37;37.01;98738.89;1888029;75;28244;-46
2023/04/24 01:34:27;;;;;;;1.07;0.98;;;;;;;24.37;36.98;98736.98;1880074;75;28132;-48
2023/04/24 01:37:16;;;;;;;0.88;0.88;;;;;;;24.35;36.99;98740.54;1868725;76;28185;-49
2023/04/24 01:40:07;;;;;;;0.90;0.90;;;;;;;24.36;36.98;98738.09;1884001;74;28026;-50
2023/04/24 01:42:56;;;;;;;0.95;0.95;;;;;;;24.38;36.97;98735.90;1872863;75;28087;-48
2023/04/24 01:45:44;;;;;;;1.60;0.60;;;;;;;24.38;36.90;98734.53;1879402;75;28083;-48
2023/04/24 01:48:34;;;;;;;0.68;0.68;;;;;;;24.37;36.96;98735.61;1865343;75;28199;-49
2023/04/24 01:51:22;;;;;;;0.93;0.60;;;;;;;24.36;36.97;98733.14;1869250;76;28096;-47
2023/04/24 01:54:11;;;;;;;0.70;0.70;;;;;;;24.38;36.96;98735.07;1866517;76;28130;-47
2023/04/24 01:57:01;;;;;;;0.70;0.70;;;;;;;24.38;36.91;98723.55;1868370;76;28049;-48
2023/04/24 01:59:50;;;;;;;0.88;0.88;;;;;;;24.36;36.91;98709.80;1861017;76;28173;-50
2023/04/24 02:02:41;;;;;;;1.00;0.80;;;;;;;24.37;36.90;98703.20;1859549;75;28065;-49
2023/04/24 02:05:29;;;;;;;0.70;0.70;;;;;;;24.34;36.96;98712.80;1870674;76;28058;-49
2023/04/24 02:08:17;;;;;;;1.52;0.88;;;;;;;24.36;36.96;98719.41;1861541;76;28232;-47
2023/04/24 02:11:06;;;;;;;0.60;0.60;;;;;;;24.37;36.92;98727.91;1847568;76;28587;-49
2023/04/24 02:13:54;;;;;;;1.00;0.70;;;;;;;24.35;36.91;98730.93;1869978;76;28093;-46
2023/04/24 02:16:43;;;;;;;0.70;0.70;;;;;;;24.37;36.88;98736.98;1869849;76;28081;-50
2023/04/24 02:19:32;;;;;;;0.90;0.90;;;;;;;24.38;36.89;98738.64;1865864;76;28141;-47
2023/04/24 02:22:21;;;;;;;1.50;0.60;;;;;;;24.39;36.83;98740.28;1845461;76;28123;-48
2023/04/24 02:25:10;;;;;;;0.62;0.62;;;;;;;24.38;36.82;98744.14;1870021;76;28159;-50
2023/04/24 02:27:58;;;;;;;0.60;0.60;;;;;;;24.36;36.88;98747.70;1870070;76;28082;-47
2023/04/24 02:30:47;;;;;;;0.70;0.70;;;;;;;24.34;36.90;98755.34;1869068;76;28057;-47
2023/04/24 02:33:36;;;;;;;0.60;0.60;;;;;;;24.35;36.89;98758.37;1865797;76;28062;-49
2023/04/24 02:36:24;;;;;;;0.68;0.62;;;;;;;24.34;36.91;98763.58;1866777;76;28243;-47
2023/04/24 02:39:14;;;;;;;0.70;0.70;;;;;;;24.32;36.90;98757.52;1872251;76;28077;-50
2023/04/24 02:42:02;;;;;;;0.80;0.80;;;;;;;24.34;36.88;98758.66;1869206;76;28137;-47
2023/04/24 02:44:52;;;;;;;0.60;0.60;;;;;;;24.35;36.87;98762.50;1870283;76;31050;-45
2023/04/24 02:47:40;;;;;;;0.80;0.80;;;;;;;24.34;36.82;98766.31;1867493;75;28087;-49
2023/04/24 02:50:29;;;;;;;0.78;0.78;;;;;;;24.35;36.86;98763.88;1865947;76;28171;-49
2023/04/24 02:53:18;;;;;;;0.68;0.68;;;;;;;24.36;36.79;98761.42;1868356;76;28071;-49
2023/04/24 02:56:06;;;;;;;0.68;0.55;;;;;;;24.34;36.83;98751.80;1868022;76;28063;-50
2023/04/24 02:58:54;;;;;;;0.80;0.80;;;;;;;24.34;36.84;98755.34;1867677;76;28057;-51
2023/04/24 03:01:42;;;;;;;0.60;0.60;;;;;;;24.35;36.83;98754.27;1865888;75;28074;-52
2023/04/24 03:04:31;;;;;;;0.60;0.60;;;;;;;24.33;36.80;98751.50;1834619;77;28296;-52
2023/04/24 03:07:20;;;;;;;0.70;0.70;;;;;;;24.32;36.83;98753.98;1862733;76;28055;-48
2023/04/24 03:10:10;;;;;;;0.80;0.70;;;;;;;24.32;36.84;98760.84;1868000;76;28069;-47
2023/04/24 03:12:58;;;;;;;0.70;0.70;;;;;;;24.32;36.84;98756.16;1869042;76;28571;-46
2023/04/24 03:15:47;;;;;;;0.90;0.40;;;;;;;24.33;36.82;98758.36;1855605;76;28191;-51
2023/04/24 03:18:35;;;;;;;0.40;0.40;;;;;;;24.33;36.83;98763.31;1862236;75;28238;-49
2023/04/24 03:21:26;;;;;;;0.70;0.70;;;;;;;24.30;36.84;98754.22;1867938;76;28100;-48
2023/04/24 03:24:14;;;;;;;0.60;0.57;;;;;;;24.32;36.82;98760.27;1868775;76;28140;-51
2023/04/24 03:27:02;;;;;;;0.70;0.70;;;;;;;24.31;36.82;98770.98;1870082;76;28053;-47
2023/04/24 03:30:11;;;;;;;0.75;0.60;;;;;;;24.31;36.82;98761.38;1861405;76;28287;-50
2023/04/24 03:33:04;;;;;;;0.57;0.57;;;;;;;24.26;36.85;98748.98;1863420;75;28196;-53
2023/04/24 03:35:54;;;;;;;0.98;0.70;;;;;;;24.29;36.81;98755.33;1865853;76;28125;-48
2023/04/24 03:38:43;;;;;;;0.62;0.62;;;;;;;24.28;36.83;98752.29;1848511;76;38403;-49
2023/04/24 03:41:45;;;;;;;1.00;0.72;;;;;;;24.31;36.81;98759.17;1834511;77;28223;-50
2023/04/24 03:44:35;;;;;;;0.50;0.50;;;;;;;24.27;36.87;98761.60;1855108;76;28224;-50
2023/04/24 03:47:23;;;;;;;0.60;0.60;;;;;;;24.29;36.86;98765.48;1856203;75;28103;-47
2023/04/24 03:50:12;;;;;;;0.70;0.70;;;;;;;24.29;36.84;98754.50;1844486;75;28334;-48
2023/04/24 03:53:01;;;;;;;0.60;0.60;;;;;;;24.31;36.79;98753.69;1849626;76;28211;-51
2023/04/24 03:55:57;;;;;;;0.70;0.70;;;;;;;24.27;36.89;98749.25;1848011;76;28368;-52
2023/04/24 03:58:45;;;;;;;0.50;0.50;;;;;;;24.29;36.86;98753.95;1853401;76;28307;-51
2023/04/24 04:01:36;;;;;;;0.30;0.30;;;;;;;24.31;36.82;98754.52;1836865;76;28224;-51
2023/04/24 04:04:26;;;;;;;0.30;0.30;;;;;;;24.26;36.62;98753.64;1833989;76;28340;-52
2023/04/24 04:07:15;;;;;;;0.50;0.50;;;;;;;24.23;36.76;98755.53;1836553;76;38613;-50
2023/04/24 04:10:03;;;;;;;0.50;0.50;;;;;;;24.20;36.78;98751.39;1862092;76;28146;-51
2023/04/24 04:12:52;;;;;;;0.50;0.50;;;;;;;24.22;36.77;98761.59;1833438;77;28188;-49
2023/04/24 04:15:40;;;;;;;0.88;0.40;;;;;;;24.20;36.88;98763.74;1837443;76;28137;-53
2023/04/24 04:18:29;;;;;;;0.40;0.40;;;;;;;24.19;36.96;98767.59;1859205;75;28137;-50
2023/04/24 04:21:18;;;;;;;0.60;0.60;;;;;;;24.18;36.99;98765.92;1829032;77;28292;-51
2023/04/24 04:24:07;;;;;;;0.60;0.40;;;;;;;24.19;37.03;98756.62;1833084;77;28173;-52
2023/04/24 04:26:57;;;;;;;0.53;0.40;;;;;;;24.22;37.03;98763.50;1836529;76;28213;-52
2023/04/24 04:29:48;;;;;;;0.40;0.40;;;;;;;24.20;37.03;98764.31;1864421;76;28236;-51
2023/04/24 04:32:37;;;;;;;0.30;0.30;;;;;;;24.24;37.01;98766.27;1838961;76;28137;-54
2023/04/24 04:35:25;;;;;;;0.30;0.30;;;;;;;24.25;37.01;98765.16;1843245;76;28243;-52
2023/04/24 04:38:14;;;;;;;0.40;0.40;;;;;;;24.25;37.01;98769.27;1833719;76;28282;-53
2023/04/24 04:41:05;;;;;;;0.45;0.40;;;;;;;24.26;37.06;98779.17;1853213;76;28271;-51
2023/04/24 04:43:53;;;;;;;0.70;0.70;;;;;;;24.24;37.05;98779.98;1841880;76;28266;-52
2023/04/24 04:46:42;;;;;;;0.57;0.57;;;;;;;24.22;37.05;98774.48;1831702;76;28192;-49
2023/04/24 04:49:34;;;;;;;0.40;0.40;;;;;;;24.24;37.04;98781.36;1833612;76;28208;-53
2023/04/24 04:52:25;;;;;;;1.57;0.50;;;;;;;24.23;37.06;98786.55;1882482;74;28235;-50
2023/04/24 04:55:15;;;;;;;0.60;0.60;;;;;;;24.23;37.01;98798.06;1908198;74;28137;-52
2023/04/24 04:58:21;;;;;;;0.50;0.50;;;;;;;24.19;37.05;98792.29;1861325;74;28171;-48
2023/04/24 05:01:11;;;;;;;0.42;0.42;;;;;;;24.18;37.06;98794.73;1872103;76;28153;-53
2023/04/24 05:04:01;;;;;;;1.30;0.50;;;;;;;24.15;37.12;98795.28;1881218;74;31126;-52
2023/04/24 05:06:51;;;;;;;0.53;0.53;;;;;;;24.20;37.04;98794.50;1858217;75;28302;-54
2023/04/24 05:09:39;;;;;;;0.45;0.45;;;;;;;24.20;37.01;98793.92;1888311;75;30129;-52
2023/04/24 05:12:28;;;;;;;0.47;0.40;;;;;;;24.22;37.02;98797.27;1882921;75;28530;-52
2023/04/24 05:15:18;;;;;;;0.50;0.50;;;;;;;24.25;36.95;98800.84;1876035;75;28103;-49
2023/04/24 05:18:06;;;;;;;0.40;0.40;;;;;;;24.22;37.01;98804.13;1904599;75;28143;-54
2023/04/24 05:20:55;;;;;;;1.40;0.82;;;;;;;24.20;37.21;98809.59;1890003;75;28069;-51
2023/04/24 05:23:44;;;;;;;1.60;0.53;;;;;;;24.20;37.26;98810.97;1903284;75;28083;-49
2023/04/24 05:26:35;;;;;;;0.37;0.37;;;;;;;24.21;37.26;98811.23;1882638;75;28138;-52
2023/04/24 05:29:26;;;;;;;0.65;0.62;;;;;;;24.22;37.20;98811.52;1885078;75;28211;-53
2023/04/24 05:32:14;;;;;;;0.70;0.50;;;;;;;24.21;37.21;98813.97;1882591;75;28091;-49
2023/04/24 05:35:03;;;;;;;0.50;0.50;;;;;;;24.18;37.28;98813.95;1872575;74;28119;-54
2023/04/24 05:37:52;;;;;;;0.40;0.40;;;;;;;24.23;37.25;98816.74;1869965;75;28220;-54
2023/04/24 05:40:41;;;;;;;0.80;0.40;;;;;;;24.27;37.17;98812.37;1881574;75;28146;-54
2023/04/24 05:43:29;;;;;;;0.50;0.50;;;;;;;24.27;37.17;98814.31;1874461;76;28079;-53
2023/04/24 05:46:18;;;;;;;0.40;0.40;;;;;;;24.27;37.14;98817.87;1879921;75;28147;-53
2023/04/24 05:49:06;;;;;;;0.30;0.30;;;;;;;24.28;37.13;98820.91;1876036;76;28556;-51
2023/04/24 05:51:54;;;;;;;0.70;0.40;;;;;;;24.29;37.14;98824.48;1874442;74;28188;-53
2023/04/24 05:54:43;;;;;;;0.35;0.35;;;;;;;24.28;37.13;98826.39;1877771;76;28063;-54
2023/04/24 05:57:32;;;;;;;0.60;0.50;;;;;;;24.30;37.14;98824.21;1907253;74;32060;-53
2023/04/24 06:00:22;;;;;;;0.45;0.45;;;;;;;24.29;37.13;98828.06;1888443;74;28079;-50
2023/04/24 06:03:12;;;;;;;0.53;0.40;;;;;;;24.29;37.18;98826.69;1891447;74;28220;-53
2023/04/24 06:06:00;;;;;;;0.30;0.30;;;;;;;24.29;37.22;98841.79;1885917;74;28068;-53
2023/04/24 06:08:49;;;;;;;0.47;0.47;;;;;;;24.29;37.19;98856.05;1900328;74;28162;-54
2023/04/24 06:11:37;;;;;;;0.70;0.70;;;;;;;24.29;37.23;98860.17;1889131;74;28119;-52
2023/04/24 06:14:27;;;;;;;0.50;0.40;;;;;;;24.28;37.22;98885.94;1893615;74;28247;-51
2023/04/24 06:17:26;;;;;;;0.30;0.30;;;;;;;24.29;37.23;98887.08;1870226;74;28083;-47
2023/04/24 06:20:14;;;;;;;0.72;0.60;;;;;;;24.27;37.30;98887.86;1886034;74;28064;-51
2023/04/24 06:23:03;;;;;;;0.55;0.55;;;;;;;24.28;37.31;98892.27;1901379;74;28132;-49
2023/04/24 06:25:53;;;;;;;0.57;0.47;;;;;;;24.30;37.34;98897.48;1878187;76;28210;-53
2023/04/24 06:28:41;;;;;;;0.42;0.42;;;;;;;24.30;37.36;98889.25;1877734;76;28168;-52
2023/04/24 06:31:30;;;;;;;0.40;0.40;;;;;;;24.31;37.30;98888.17;1900070;74;28084;-53
2023/04/24 06:34:18;;;;;;;0.45;0.45;;;;;;;24.29;37.36;98891.20;1878259;76;28091;-50
2023/04/24 06:37:07;;;;;;;0.50;0.50;;;;;;;24.31;37.38;98897.78;1878319;76;28545;-51
2023/04/24 06:39:55;;;;;;;1.55;0.50;;;;;;;24.30;37.40;98896.95;1897885;74;28171;-52
2023/04/24 06:42:44;;;;;;;0.60;0.50;;;;;;;24.31;37.41;98903.27;1888420;74;28149;-54
2023/04/24 06:45:33;;;;;;;0.30;0.30;;;;;;;24.33;37.37;98902.47;1902823;74;28168;-49
2023/04/24 06:48:21;;;;;;;0.60;0.60;;;;;;;24.34;37.45;98900.83;1877939;74;28088;-50
2023/04/24 06:51:09;;;;;;;0.70;0.50;;;;;;;24.34;37.38;98904.94;1901498;74;28099;-50
2023/04/24 06:53:58;;;;;;;0.53;0.53;;;;;;;24.32;37.45;98908.49;1884152;75;28628;-52
2023/04/24 06:56:47;;;;;;;0.25;0.25;;;;;;;24.34;37.50;98918.66;1884655;74;28125;-54
2023/04/24 06:59:35;;;;;;;0.60;0.60;;;;;;;24.33;37.54;98920.31;1888413;74;28215;-55
2023/04/24 07:02:24;;;;;;;0.88;0.45;;;;;;;24.32;37.59;98918.10;1899642;74;28121;-50
2023/04/24 07:05:13;;;;;;;0.30;0.30;;;;;;;24.30;37.74;98927.14;1891911;74;28179;-52
2023/04/24 07:08:02;;;;;;;0.50;0.40;;;;;;;24.27;38.00;98941.37;1878173;74;28356;-51
2023/04/24 07:10:51;;;;;;;0.40;0.40;;;;;;;24.26;38.09;98943.85;1899206;74;28213;-53
2023/04/24 07:13:41;;;;;;;0.80;0.40;;;;;;;24.25;38.34;98949.05;1889639;74;28127;-51
2023/04/24 07:16:30;;;;;;;0.50;0.50;;;;;;;24.27;38.22;98953.73;1901690;74;28256;-51
2023/04/24 07:19:18;;;;;;;0.30;0.30;;;;;;;24.23;38.28;98946.27;1877970;74;28079;-49
2023/04/24 07:22:06;;;;;;;0.53;0.53;;;;;;;24.21;38.23;98949.82;1908930;74;28241;-50
2023/04/24 07:24:55;;;;;;;0.47;0.47;;;;;;;24.23;38.15;98949.85;1899165;74;28215;-50
2023/04/24 07:27:43;;;;;;;0.30;0.30;;;;;;;24.24;38.22;98950.15;1901222;74;28169;-52
2023/04/24 07:30:32;;;;;;;0.25;0.25;;;;;;;24.26;38.24;98944.39;1879209;74;28074;-51
2023/04/24 07:33:21;;;;;;;0.30;0.30;;;;;;;24.29;38.20;98953.48;1908154;74;28063;-50
2023/04/24 07:36:15;;;;;;;0.50;0.50;;;;;;;24.29;38.16;98953.48;1901607;74;28148;-52
2023/04/24 07:38:59;;;;;;;0.42;0.42;;;;;;;24.29;38.19;98963.09;1877656;76;28180;-52
2023/04/24 07:41:48;;;;;;;0.57;0.57;;;;;;;24.29;38.28;98972.17;1890564;74;28252;-52
2023/04/24 07:44:36;;;;;;;0.20;0.20;;;;;;;24.31;38.17;98968.61;1909048;74;28048;-49
2023/04/24 07:47:24;;;;;;;0.28;0.28;;;;;;;24.28;38.17;98973.77;1905472;74;28059;-52
2023/04/24 07:50:13;;;;;;;0.47;0.47;;;;;;;24.27;38.17;98977.06;1894520;74;28219;-50
2023/04/24 07:53:02;;;;;;;0.50;0.33;;;;;;;24.25;38.28;98980.61;1900036;74;28185;-52
2023/04/24 07:55:49;;;;;;;0.40;0.40;;;;;;;24.26;38.26;98983.66;1874052;75;28407;-53
2023/04/24 07:58:38;;;;;;;0.50;0.50;;;;;;;24.25;38.22;98994.33;1848462;76;28307;-51
2023/04/24 08:01:26;;;;;;;0.35;0.35;;;;;;;24.24;38.23;98992.69;1883406;75;27903;-50
2023/04/24 08:04:15;;;;;;;0.30;0.30;;;;;;;24.26;38.30;98998.75;1896064;75;28055;-48
2023/04/24 08:07:04;;;;;;;0.50;0.33;;;;;;;24.25;38.24;98997.08;1897727;75;28586;-52
2023/04/24 08:09:53;;;;;;;0.40;0.40;;;;;;;24.26;38.25;99002.87;1896274;75;38909;-51
2023/04/24 08:12:41;;;;;;;0.80;0.80;;;;;;;24.29;38.12;98994.13;1868951;76;28206;-51
2023/04/24 08:15:29;;;;;;;0.28;0.28;;;;;;;24.31;38.06;98997.44;1889999;75;28114;-52
2023/04/24 08:18:18;;;;;;;0.28;0.28;;;;;;;24.30;38.07;98997.67;1879383;75;28057;-54
2023/04/24 08:21:06;;;;;;;0.33;0.33;;;;;;;24.31;37.97;98993.86;1875427;75;28119;-51
2023/04/24 08:23:54;;;;;;;0.40;0.40;;;;;;;24.29;38.09;98992.75;1868858;76;28159;-46
2023/04/24 08:26:44;;;;;;;0.20;0.20;;;;;;;24.32;38.03;98992.22;1888250;75;28064;-49
2023/04/24 08:29:32;;;;;;;0.40;0.40;;;;;;;24.34;38.00;98995.53;1880737;75;28104;-53
2023/04/24 08:32:21;;;;;;;0.60;0.40;;;;;;;24.31;38.02;99008.95;1874323;75;28173;-52
2023/04/24 08:35:10;;;;;;;0.20;0.20;;;;;;;24.32;37.98;99011.43;1899603;75;28048;-52
2023/04/24 08:37:58;;;;;;;0.57;0.50;;;;;;;24.32;37.95;99015.55;1876406;75;28177;-51
2023/04/24 08:40:49;;;;;;;0.40;0.40;;;;;;;24.32;37.97;99009.25;1887748;75;28071;-49
2023/04/24 08:43:37;;;;;;;0.30;0.30;;;;;;;24.29;38.00;99010.59;1868853;76;28068;-53
2023/04/24 08:46:27;;;;;;;0.40;0.40;;;;;;;24.33;37.96;99009.52;1891184;75;28129;-48
2023/04/24 08:49:16;;;;;;;0.60;0.40;;;;;;;24.32;37.98;99011.43;1892053;75;28099;-51
2023/04/24 08:52:06;;;;;;;0.30;0.30;;;;;;;24.32;37.99;99007.88;1878708;75;28000;-52
2023/04/24 08:54:55;;;;;;;0.30;0.30;;;;;;;24.30;38.06;99013.61;1877707;75;31131;-51
2023/04/24 08:57:44;;;;;;;0.72;0.62;;;;;;;24.31;38.03;99013.91;1871326;75;28216;-48
2023/04/24 09:00:33;;;;;;;0.40;0.40;;;;;;;24.34;38.02;99015.31;1856396;77;28239;-51
2023/04/24 09:03:22;;;;;;;0.40;0.40;;;;;;;24.33;38.00;99007.61;1874751;74;28052;-52
2023/04/24 09:06:12;;;;;;;0.40;0.40;;;;;;;24.33;38.07;99006.78;1864979;75;28095;-53
2023/04/24 09:09:09;;;;;;;0.40;0.40;;;;;;;24.31;38.08;99001.55;1889963;75;28138;-51
2023/04/24 09:11:55;;;;;;;0.33;0.33;;;;;;;24.34;37.97;99001.59;1893168;75;28135;-48
2023/04/24 09:14:45;;;;;;;0.30;0.30;;;;;;;24.34;37.96;99002.39;1883797;75;28142;-51
2023/04/24 09:17:35;;;;;;;0.30;0.30;;;;;;;24.35;38.03;99004.06;1868717;74;28089;-50
2023/04/24 09:20:23;;;;;;;0.60;0.20;;;;;;;24.33;38.00;99013.10;1864741;75;28156;-47
2023/04/24 09:23:16;;;;;;;0.33;0.33;;;;;;;24.35;38.02;99010.09;1899552;75;28123;-48
2023/04/24 09:26:08;;;;;;;0.30;0.30;;;;;;;24.36;37.96;99006.27;1887028;75;28063;-51
2023/04/24 09:28:56;;;;;;;0.50;0.50;;;;;;;24.33;37.94;98998.00;1856689;77;28101;-48
2023/04/24 09:31:46;;;;;;;2.00;0.30;;;;;;;24.35;38.00;99005.44;1891583;74;28637;-50
2023/04/24 09:34:35;;;;;;;0.30;0.30;;;;;;;24.38;37.97;99006.30;1872346;75;28218;-49
2023/04/24 09:37:30;;;;;;;0.20;0.20;;;;;;;24.39;37.85;99002.45;1882932;75;28206;-50
2023/04/24 09:40:21;;;;;;;0.50;0.40;;;;;;;24.37;37.89;98997.77;1868732;76;28063;-54
2023/04/24 09:43:13;;;;;;;0.30;0.30;;;;;;;24.36;37.92;98995.29;1873807;75;28146;-52
2023/04/24 09:46:07;;;;;;;0.40;0.40;;;;;;;24.38;37.92;99000.81;1876336;75;28166;-50
2023/04/24 09:48:55;;;;;;;0.35;0.35;;;;;;;24.40;37.85;99001.91;1880384;75;28060;-50
2023/04/24 09:51:44;;;;;;;0.30;0.30;;;;;;;24.38;37.83;98995.86;1868526;76;28189;-52
2023/04/24 09:54:33;;;;;;;0.30;0.30;;;;;;;24.37;37.84;98995.56;1892720;75;28133;-50
2023/04/24 09:57:21;;;;;;;0.60;0.40;;;;;;;24.35;37.85;98987.59;1893060;75;28129;-51
2023/04/24 10:00:11;;;;;;;0.35;0.35;;;;;;;24.36;37.87;98981.03;1894606;75;28148;-47
2023/04/24 10:03:02;;;;;;;0.37;0.37;;;;;;;24.35;37.92;98979.36;1882868;75;31996;-48
2023/04/24 10:05:53;;;;;;;0.40;0.40;;;;;;;24.37;37.91;98977.17;1871145;75;28056;-50
2023/04/24 10:08:42;;;;;;;0.20;0.20;;;;;;;24.36;37.93;98978.28;1888443;75;28146;-47
2023/04/24 10:11:32;;;;;;;0.20;0.20;;;;;;;24.36;37.83;98976.08;1894072;75;28158;-50
2023/04/24 10:14:22;;;;;;;0.42;0.37;;;;;;;24.37;37.89;98978.55;1868884;76;28212;-50
2023/04/24 10:17:13;;;;;;;0.23;0.23;;;;;;;24.37;37.84;98977.17;1877668;74;28193;-50
2023/04/24 10:20:02;;;;;;;0.33;0.33;;;;;;;24.40;37.89;98972.55;1900217;75;28161;-54
2023/04/24 10:22:53;;;;;;;0.35;0.35;;;;;;;24.41;37.76;98970.64;1896557;75;28055;-52
2023/04/24 10:25:42;;;;;;;0.80;0.40;;;;;;;24.40;37.73;98967.06;1886931;75;28169;-48
2023/04/24 10:28:33;;;;;;;0.30;0.30;;;;;;;24.39;37.76;98968.14;1888124;75;28073;-47
2023/04/24 10:31:22;;;;;;;0.23;0.23;;;;;;;24.41;37.78;98973.39;1889457;75;28237;-50
2023/04/24 10:34:11;;;;;;;0.27;0.27;;;;;;;24.42;37.79;98978.61;1894414;74;28197;-50
2023/04/24 10:37:00;;;;;;;0.25;0.25;;;;;;;24.38;37.75;98965.66;1885424;74;28091;-50
2023/04/24 10:39:54;;;;;;;0.20;0.20;;;;;;;24.39;37.76;98972.25;1879834;74;28118;-48
2023/04/24 10:42:45;;;;;;;0.40;0.40;;;;;;;24.40;37.74;98967.59;1893336;75;28056;-51
2023/04/24 10:45:33;;;;;;;0.30;0.30;;;;;;;24.37;37.76;98963.45;1881490;75;28260;-51
2023/04/24 10:48:24;;;;;;;0.25;0.25;;;;;;;24.36;37.79;98959.06;1878826;74;28138;-49
2023/04/24 10:51:14;;;;;;;0.30;0.30;;;;;;;24.37;37.81;98956.59;1892506;75;28175;-53
2023/04/24 10:54:05;;;;;;;0.40;0.40;;;;;;;24.37;37.77;98952.47;1879641;75;28122;-51
2023/04/24 10:56:54;;;;;;;0.20;0.20;;;;;;;24.35;37.85;98949.16;1890838;75;28205;-51
2023/04/24 10:59:43;;;;;;;0.23;0.23;;;;;;;24.38;37.79;98954.14;1895174;75;28115;-49
2023/04/24 11:02:39;;;;;;;0.30;0.30;;;;;;;24.37;37.77;98946.14;1876204;75;28135;-47
2023/04/24 11:05:50;;;;;;;0.20;0.20;;;;;;;24.36;37.79;98945.34;1890581;75;35027;-50
2023/04/24 11:08:46;;;;;;;0.37;0.37;;;;;;;24.37;37.78;98938.75;1871850;75;28154;-47
2023/04/24 11:11:37;;;;;;;0.28;0.28;;;;;;;24.36;37.78;98939.84;1883545;75;28112;-51
2023/04/24 11:14:25;;;;;;;0.33;0.33;;;;;;;24.35;37.75;98943.67;1856610;77;28186;-54
2023/04/24 11:17:16;;;;;;;0.20;0.20;;;;;;;24.36;37.73;98938.48;1866503;75;28731;-50
2023/04/24 11:20:15;;;;;;;0.28;0.28;;;;;;;24.37;37.72;98939.28;1885049;75;28157;-53
2023/04/24 11:23:02;;;;;;;0.20;0.20;;;;;;;24.38;37.71;98940.95;1877717;75;28096;-51
2023/04/24 11:25:53;;;;;;;0.30;0.30;;;;;;;24.38;37.71;98943.70;1856805;76;28241;-48
2023/04/24 11:28:49;;;;;;;1.00;0.40;;;;;;;24.37;37.65;98934.63;1856820;77;28144;-48
2023/04/24 11:31:40;;;;;;;1.53;0.30;;;;;;;24.37;37.71;98934.63;1866497;75;28248;-50
2023/04/24 11:34:29;;;;;;;0.30;0.30;;;;;;;24.36;37.70;98932.16;1901988;74;28170;-50
2023/04/24 11:37:18;;;;;;;0.30;0.30;;;;;;;24.37;37.71;98939.28;1895743;74;28056;-50
2023/04/24 11:40:09;;;;;;;1.00;0.45;;;;;;;24.36;37.71;98930.78;1861646;75;28273;-50
2023/04/24 11:43:00;;;;;;;0.40;0.40;;;;;;;24.38;37.66;98930.80;1881483;75;28065;-50
2023/04/24 11:45:52;;;;;;;0.30;0.30;;;;;;;24.39;37.68;98926.95;1880351;75;28156;-49
2023/04/24 11:48:44;;;;;;;0.20;0.20;;;;;;;24.40;37.63;98917.64;1890551;75;28107;-50
2023/04/24 11:51:32;;;;;;;0.20;0.20;;;;;;;24.41;37.63;98911.62;1857062;77;28061;-53
2023/04/24 11:54:20;;;;;;;0.30;0.30;;;;;;;24.40;37.61;98906.66;1893123;75;28137;-52
2023/04/24 11:57:08;;;;;;;0.30;0.30;;;;;;;24.38;37.68;98901.98;1864993;75;28187;-51
2023/04/24 11:59:57;;;;;;;0.30;0.30;;;;;;;24.39;37.68;98902.78;1868371;76;38448;-51
2023/04/24 12:02:45;;;;;;;0.60;0.23;;;;;;;24.38;37.75;98900.61;1885195;75;28141;-54
2023/04/24 12:05:34;;;;;;;0.30;0.30;;;;;;;24.38;37.74;98900.61;1884756;75;28122;-51
2023/04/24 12:08:30;;;;;;;0.30;0.30;;;;;;;24.38;37.69;98897.86;1884424;74;28122;-49
2023/04/24 12:11:19;;;;;;;0.30;0.30;;;;;;;24.40;37.65;98896.22;1873050;75;28060;-51
2023/04/24 12:14:12;;;;;;;0.20;0.20;;;;;;;24.39;37.65;98892.64;1878616;75;28124;-50
2023/04/24 12:17:02;;;;;;;0.23;0.23;;;;;;;24.40;37.66;98890.19;1863961;75;28120;-50
2023/04/24 12:19:51;;;;;;;0.70;0.33;;;;;;;24.39;37.64;98883.03;1895149;75;28126;-49
2023/04/24 12:22:51;;;;;;;0.30;0.30;;;;;;;24.39;37.60;98887.15;1884556;75;28123;-49
2023/04/24 12:25:40;;;;;;;0.20;0.20;;;;;;;24.38;37.63;98881.93;1868629;76;28175;-48
2023/04/24 12:28:37;;;;;;;0.28;0.28;;;;;;;24.38;37.63;98878.65;1856768;77;28337;-52
2023/04/24 12:31:26;;;;;;;0.30;0.30;;;;;;;24.40;37.61;98889.36;1894178;75;28245;-54
2023/04/24 12:34:23;;;;;;;0.30;0.20;;;;;;;24.39;37.58;98891.27;1857052;75;28127;-51
2023/04/24 12:37:14;;;;;;;0.50;0.50;;;;;;;24.41;37.55;98895.14;1872768;75;28173;-48
2023/04/24 12:40:08;;;;;;;0.20;0.20;;;;;;;24.42;37.57;98894.04;1868761;76;28521;-52
2023/04/24 12:42:57;;;;;;;0.30;0.30;;;;;;;24.40;37.59;98887.45;1863590;75;28087;-52
2023/04/24 12:45:46;;;;;;;0.90;0.42;;;;;;;24.41;37.55;98884.97;1895299;75;28119;-49
2023/04/24 12:48:35;;;;;;;0.35;0.20;;;;;;;24.41;37.54;98882.22;1872639;75;28232;-51
2023/04/24 12:51:24;;;;;;;0.40;0.40;;;;;;;24.42;37.54;98885.27;1856754;77;28229;-50
2023/04/24 12:54:12;;;;;;;0.30;0.30;;;;;;;24.42;37.56;98877.03;1874162;75;28088;-47
2023/04/24 12:57:01;;;;;;;0.30;0.30;;;;;;;24.44;37.50;98874.84;1865899;75;28165;-50
2023/04/24 12:59:50;;;;;;;0.25;0.20;;;;;;;24.42;37.54;98870.16;1888650;74;28216;-53
2023/04/24 13:02:39;;;;;;;0.20;0.20;;;;;;;24.43;37.59;98864.97;1901462;74;28148;-51
2023/04/24 13:05:27;;;;;;;0.23;0.23;;;;;;;24.45;37.51;98858.67;1902356;74;28103;-52
2023/04/24 13:08:15;;;;;;;0.23;0.23;;;;;;;24.45;37.51;98857.84;1891866;74;28130;-52
2023/04/24 13:11:03;;;;;;;0.30;0.30;;;;;;;24.44;37.51;98863.86;1877813;76;28060;-48
2023/04/24 13:13:52;;;;;;;0.20;0.20;;;;;;;24.45;37.47;98855.92;1885087;74;28117;-49
2023/04/24 13:16:40;;;;;;;0.40;0.40;;;;;;;24.45;37.52;98846.85;1887620;74;28036;-53
2023/04/24 13:19:29;;;;;;;0.42;0.40;;;;;;;24.43;37.49;98851.24;1895010;74;28131;-52